sensor_id;sensor_type;location;lat;lon;timestamp;pressure;altitude;pressure_sealevel;temperature;humidity
55517;BME280;41724;51.176;-0.708;2023-05-01T00:02:04;101365.97;;;15.98;52.46
55517;BME280;41724;51.176;-0.708;2023-05-01T00:04:32;101370.30;;;15.96;52.38
55517;BME280;41724;51.176;-0.708;2023-05-01T00:07:00;101368.70;;;16.09;52.00
55517;BME280;41724;51.176;-0.708;2023-05-01T00:09:27;101369.14;;;15.85;52.54
55517;BME280;41724;51.176;-0.708;2023-05-01T00:11:54;101374.43;;;15.68;53.28
55517;BME280;41724;51.176;-0.708;2023-05-01T00:14:21;101367.69;;;15.69;53.62
55517;BME280;41724;51.176;-0.708;2023-05-01T00:16:47;101365.49;;;16.11;53.40
55517;BME280;41724;51.176;-0.708;2023-05-01T00:19:15;101362.62;;;15.48;53.15
55517;BME280;41724;51.176;-0.708;2023-05-01T00:21:42;101358.07;;;15.45;53.52
55517;BME280;41724;51.176;-0.708;2023-05-01T00:24:08;101353.02;;;15.34;54.49
55517;BME280;41724;51.176;-0.708;2023-05-01T00:26:36;101355.91;;;15.17;54.02
55517;BME280;41724;51.176;-0.708;2023-05-01T00:29:02;101349.60;;;15.34;54.60
55517;BME280;41724;51.176;-0.708;2023-05-01T00:31:30;101344.18;;;15.25;55.26
55517;BME280;41724;51.176;-0.708;2023-05-01T00:33:57;101343.37;;;15.07;54.40
55517;BME280;41724;51.176;-0.708;2023-05-01T00:36:24;101343.29;;;14.90;54.49
55517;BME280;41724;51.176;-0.708;2023-05-01T00:38:51;101336.06;;;15.66;54.06
55517;BME280;41724;51.176;-0.708;2023-05-01T00:41:18;101334.09;;;15.15;54.34
55517;BME280;41724;51.176;-0.708;2023-05-01T00:43:45;101325.13;;;15.28;53.91
55517;BME280;41724;51.176;-0.708;2023-05-01T00:46:12;101325.75;;;15.10;54.57
55517;BME280;41724;51.176;-0.708;2023-05-01T00:48:39;101321.75;;;15.31;54.37
55517;BME280;41724;51.176;-0.708;2023-05-01T00:51:06;101317.75;;;14.75;56.24
55517;BME280;41724;51.176;-0.708;2023-05-01T00:53:34;101318.04;;;14.56;56.63
55517;BME280;41724;51.176;-0.708;2023-05-01T00:56:01;101314.47;;;14.81;56.27
55517;BME280;41724;51.176;-0.708;2023-05-01T00:58:28;101315.14;;;14.86;56.28
55517;BME280;41724;51.176;-0.708;2023-05-01T01:00:56;101313.57;;;14.19;58.42
55517;BME280;41724;51.176;-0.708;2023-05-01T01:03:23;101304.74;;;14.66;57.33
55517;BME280;41724;51.176;-0.708;2023-05-01T01:06:03;101307.28;;;14.30;57.86
55517;BME280;41724;51.176;-0.708;2023-05-01T01:08:39;101306.66;;;14.51;57.29
55517;BME280;41724;51.176;-0.708;2023-05-01T01:11:16;101304.02;;;14.58;57.33
55517;BME280;41724;51.176;-0.708;2023-05-01T01:13:54;101301.44;;;14.52;57.92
55517;BME280;41724;51.176;-0.708;2023-05-01T01:16:31;101300.17;;;14.60;58.15
55517;BME280;41724;51.176;-0.708;2023-05-01T01:19:11;101294.57;;;14.72;57.68
55517;BME280;41724;51.176;-0.708;2023-05-01T01:21:45;101289.00;;;14.95;56.94
55517;BME280;41724;51.176;-0.708;2023-05-01T01:24:42;101288.57;;;14.27;59.09
55517;BME280;41724;51.176;-0.708;2023-05-01T01:30:17;101277.60;;;14.90;59.20
55517;BME280;41724;51.176;-0.708;2023-05-01T01:33:07;101271.73;;;14.97;57.68
55517;BME280;41724;51.176;-0.708;2023-05-01T01:35:53;101269.85;;;13.99;59.68
55517;BME280;41724;51.176;-0.708;2023-05-01T01:38:24;101263.14;;;14.77;58.74
55517;BME280;41724;51.176;-0.708;2023-05-01T01:40:59;101262.22;;;14.48;58.75
55517;BME280;41724;51.176;-0.708;2023-05-01T01:43:35;101262.97;;;14.76;58.23
55517;BME280;41724;51.176;-0.708;2023-05-01T01:46:06;101263.25;;;14.77;57.61
55517;BME280;41724;51.176;-0.708;2023-05-01T01:48:36;101259.48;;;14.89;57.80
55517;BME280;41724;51.176;-0.708;2023-05-01T01:51:07;101253.17;;;14.50;59.34
55517;BME280;41724;51.176;-0.708;2023-05-01T01:53:36;101244.40;;;14.96;59.16
55517;BME280;41724;51.176;-0.708;2023-05-01T01:56:07;101240.06;;;14.88;58.73
55517;BME280;41724;51.176;-0.708;2023-05-01T01:58:35;101238.30;;;14.75;59.15
55517;BME280;41724;51.176;-0.708;2023-05-01T02:01:04;101233.81;;;14.64;59.45
55517;BME280;41724;51.176;-0.708;2023-05-01T02:03:32;101227.87;;;14.38;61.17
55517;BME280;41724;51.176;-0.708;2023-05-01T02:06:00;101231.71;;;14.41;61.26
55517;BME280;41724;51.176;-0.708;2023-05-01T02:08:29;101228.53;;;14.46;60.40
55517;BME280;41724;51.176;-0.708;2023-05-01T02:10:58;101227.72;;;14.95;59.25
55517;BME280;41724;51.176;-0.708;2023-05-01T02:13:28;101229.08;;;14.99;58.78
55517;BME280;41724;51.176;-0.708;2023-05-01T02:15:57;101231.08;;;15.47;58.49
55517;BME280;41724;51.176;-0.708;2023-05-01T02:18:27;101232.99;;;14.80;59.62
55517;BME280;41724;51.176;-0.708;2023-05-01T02:20:55;101230.44;;;15.09;58.73
55517;BME280;41724;51.176;-0.708;2023-05-01T02:23:23;101229.61;;;14.65;59.92
55517;BME280;41724;51.176;-0.708;2023-05-01T02:25:51;101235.96;;;14.28;61.14
55517;BME280;41724;51.176;-0.708;2023-05-01T02:28:21;101235.51;;;14.88;60.49
55517;BME280;41724;51.176;-0.708;2023-05-01T02:30:49;101231.79;;;14.13;61.84
55517;BME280;41724;51.176;-0.708;2023-05-01T02:33:15;101229.60;;;13.78;63.78
55517;BME280;41724;51.176;-0.708;2023-05-01T02:35:44;101229.70;;;13.29;65.50
55517;BME280;41724;51.176;-0.708;2023-05-01T02:38:11;101231.32;;;13.73;65.33
55517;BME280;41724;51.176;-0.708;2023-05-01T02:40:40;101231.79;;;13.95;64.75
55517;BME280;41724;51.176;-0.708;2023-05-01T02:43:10;101229.31;;;13.37;66.40
55517;BME280;41724;51.176;-0.708;2023-05-01T02:45:39;101228.90;;;13.86;65.49
55517;BME280;41724;51.176;-0.708;2023-05-01T02:48:10;101225.45;;;13.74;65.59
55517;BME280;41724;51.176;-0.708;2023-05-01T02:50:39;101225.93;;;14.21;65.07
55517;BME280;41724;51.176;-0.708;2023-05-01T02:53:07;101221.21;;;13.68;66.38
55517;BME280;41724;51.176;-0.708;2023-05-01T02:55:34;101225.34;;;14.32;63.89
55517;BME280;41724;51.176;-0.708;2023-05-01T02:58:02;101224.86;;;14.74;63.38
55517;BME280;41724;51.176;-0.708;2023-05-01T03:00:29;101222.77;;;14.88;62.50
55517;BME280;41724;51.176;-0.708;2023-05-01T03:02:56;101221.21;;;14.90;61.94
55517;BME280;41724;51.176;-0.708;2023-05-01T03:05:24;101219.71;;;15.03;61.42
55517;BME280;41724;51.176;-0.708;2023-05-01T03:07:51;101213.51;;;15.09;61.37
55517;BME280;41724;51.176;-0.708;2023-05-01T03:10:18;101215.49;;;14.34;62.83
55517;BME280;41724;51.176;-0.708;2023-05-01T03:12:45;101213.91;;;14.98;61.50
55517;BME280;41724;51.176;-0.708;2023-05-01T03:15:13;101207.68;;;15.05;60.97
55517;BME280;41724;51.176;-0.708;2023-05-01T03:17:40;101209.59;;;15.17;61.15
55517;BME280;41724;51.176;-0.708;2023-05-01T03:20:08;101209.12;;;14.24;64.09
55517;BME280;41724;51.176;-0.708;2023-05-01T03:22:35;101207.42;;;14.67;62.74
55517;BME280;41724;51.176;-0.708;2023-05-01T03:25:03;101211.32;;;14.30;64.31
55517;BME280;41724;51.176;-0.708;2023-05-01T03:27:31;101208.82;;;14.81;62.18
55517;BME280;41724;51.176;-0.708;2023-05-01T03:29:58;101208.38;;;14.60;62.29
55517;BME280;41724;51.176;-0.708;2023-05-01T03:32:25;101212.51;;;15.08;61.19
55517;BME280;41724;51.176;-0.708;2023-05-01T03:34:52;101213.06;;;14.78;61.98
55517;BME280;41724;51.176;-0.708;2023-05-01T03:37:19;101210.26;;;14.37;63.93
55517;BME280;41724;51.176;-0.708;2023-05-01T03:39:46;101206.61;;;14.32;63.31
55517;BME280;41724;51.176;-0.708;2023-05-01T03:42:13;101207.99;;;13.64;65.09
55517;BME280;41724;51.176;-0.708;2023-05-01T03:44:41;101209.98;;;14.36;63.33
55517;BME280;41724;51.176;-0.708;2023-05-01T03:47:08;101207.35;;;14.07;64.06
55517;BME280;41724;51.176;-0.708;2023-05-01T03:49:35;101212.89;;;14.43;62.78
55517;BME280;41724;51.176;-0.708;2023-05-01T03:52:02;101208.13;;;14.67;62.05
55517;BME280;41724;51.176;-0.708;2023-05-01T03:54:29;101205.07;;;14.91;61.32
55517;BME280;41724;51.176;-0.708;2023-05-01T03:56:57;101206.56;;;14.74;61.01
55517;BME280;41724;51.176;-0.708;2023-05-01T03:59:24;101204.11;;;14.53;61.73
55517;BME280;41724;51.176;-0.708;2023-05-01T04:01:51;101195.37;;;14.86;61.63
55517;BME280;41724;51.176;-0.708;2023-05-01T04:04:18;101204.73;;;14.18;62.84
55517;BME280;41724;51.176;-0.708;2023-05-01T04:06:45;101205.27;;;14.48;62.09
55517;BME280;41724;51.176;-0.708;2023-05-01T04:09:12;101204.95;;;15.00;60.71
55517;BME280;41724;51.176;-0.708;2023-05-01T04:11:40;101198.29;;;15.14;60.20
55517;BME280;41724;51.176;-0.708;2023-05-01T04:14:08;101198.34;;;15.47;58.90
55517;BME280;41724;51.176;-0.708;2023-05-01T04:16:35;101205.80;;;14.64;60.37
55517;BME280;41724;51.176;-0.708;2023-05-01T04:19:02;101209.18;;;14.20;60.95
55517;BME280;41724;51.176;-0.708;2023-05-01T04:21:29;101207.13;;;14.45;60.37
55517;BME280;41724;51.176;-0.708;2023-05-01T04:23:56;101209.16;;;14.82;59.69
55517;BME280;41724;51.176;-0.708;2023-05-01T04:26:23;101208.64;;;14.43;60.19
55517;BME280;41724;51.176;-0.708;2023-05-01T04:28:50;101208.73;;;14.33;59.27
55517;BME280;41724;51.176;-0.708;2023-05-01T04:31:17;101211.72;;;14.01;60.33
55517;BME280;41724;51.176;-0.708;2023-05-01T04:33:45;101206.34;;;12.84;62.68
55517;BME280;41724;51.176;-0.708;2023-05-01T04:36:12;101207.92;;;13.81;60.94
55517;BME280;41724;51.176;-0.708;2023-05-01T04:38:39;101210.15;;;13.70;61.40
55517;BME280;41724;51.176;-0.708;2023-05-01T04:41:06;101205.78;;;13.71;61.12
55517;BME280;41724;51.176;-0.708;2023-05-01T04:43:33;101206.07;;;14.16;59.43
55517;BME280;41724;51.176;-0.708;2023-05-01T04:46:00;101208.10;;;14.53;58.44
55517;BME280;41724;51.176;-0.708;2023-05-01T04:48:28;101214.30;;;13.78;59.55
55517;BME280;41724;51.176;-0.708;2023-05-01T04:50:55;101215.01;;;14.25;59.14
55517;BME280;41724;51.176;-0.708;2023-05-01T04:53:22;101211.38;;;14.24;58.70
55517;BME280;41724;51.176;-0.708;2023-05-01T04:55:49;101207.92;;;14.60;58.44
55517;BME280;41724;51.176;-0.708;2023-05-01T04:58:17;101208.26;;;14.40;58.90
55517;BME280;41724;51.176;-0.708;2023-05-01T05:00:43;101209.69;;;13.77;60.26
55517;BME280;41724;51.176;-0.708;2023-05-01T05:03:10;101216.41;;;13.92;59.28
55517;BME280;41724;51.176;-0.708;2023-05-01T05:05:38;101210.14;;;14.12;58.44
55517;BME280;41724;51.176;-0.708;2023-05-01T05:08:05;101214.47;;;14.61;57.81
55517;BME280;41724;51.176;-0.708;2023-05-01T05:10:32;101212.40;;;14.37;57.70
55517;BME280;41724;51.176;-0.708;2023-05-01T05:12:59;101215.32;;;14.50;57.35
55517;BME280;41724;51.176;-0.708;2023-05-01T05:15:26;101211.05;;;14.88;56.92
55517;BME280;41724;51.176;-0.708;2023-05-01T05:17:52;101206.87;;;15.00;56.72
55517;BME280;41724;51.176;-0.708;2023-05-01T05:20:20;101212.32;;;14.43;58.03
55517;BME280;41724;51.176;-0.708;2023-05-01T05:22:47;101206.13;;;14.65;57.26
55517;BME280;41724;51.176;-0.708;2023-05-01T05:25:14;101201.15;;;14.67;57.13
55517;BME280;41724;51.176;-0.708;2023-05-01T05:27:42;101206.34;;;14.91;56.55
55517;BME280;41724;51.176;-0.708;2023-05-01T05:30:10;101207.25;;;14.59;57.41
55517;BME280;41724;51.176;-0.708;2023-05-01T05:32:37;101207.45;;;14.84;56.97
55517;BME280;41724;51.176;-0.708;2023-05-01T05:35:05;101208.18;;;14.41;57.95
55517;BME280;41724;51.176;-0.708;2023-05-01T05:37:33;101209.69;;;14.71;57.84
55517;BME280;41724;51.176;-0.708;2023-05-01T05:40:00;101211.98;;;14.86;57.22
55517;BME280;41724;51.176;-0.708;2023-05-01T05:42:27;101208.51;;;14.68;57.51
55517;BME280;41724;51.176;-0.708;2023-05-01T05:44:54;101208.22;;;14.64;57.55
55517;BME280;41724;51.176;-0.708;2023-05-01T05:47:21;101210.96;;;14.34;58.52
55517;BME280;41724;51.176;-0.708;2023-05-01T05:49:48;101212.10;;;14.64;58.41
55517;BME280;41724;51.176;-0.708;2023-05-01T05:52:15;101214.93;;;14.46;58.25
55517;BME280;41724;51.176;-0.708;2023-05-01T05:54:42;101218.08;;;14.46;58.45
55517;BME280;41724;51.176;-0.708;2023-05-01T05:57:09;101212.08;;;14.75;57.93
55517;BME280;41724;51.176;-0.708;2023-05-01T05:59:36;101215.46;;;14.07;60.27
55517;BME280;41724;51.176;-0.708;2023-05-01T06:02:03;101217.38;;;14.69;59.44
55517;BME280;41724;51.176;-0.708;2023-05-01T06:04:30;101217.43;;;14.36;58.90
55517;BME280;41724;51.176;-0.708;2023-05-01T06:06:58;101218.85;;;15.01;58.88
55517;BME280;41724;51.176;-0.708;2023-05-01T06:09:24;101224.02;;;14.36;59.47
55517;BME280;41724;51.176;-0.708;2023-05-01T06:11:51;101221.92;;;14.57;59.58
55517;BME280;41724;51.176;-0.708;2023-05-01T06:14:18;101220.51;;;14.55;59.78
55517;BME280;41724;51.176;-0.708;2023-05-01T06:16:45;101226.62;;;13.91;62.47
55517;BME280;41724;51.176;-0.708;2023-05-01T06:19:13;101223.68;;;13.57;64.62
55517;BME280;41724;51.176;-0.708;2023-05-01T06:21:39;101227.11;;;13.31;67.85
55517;BME280;41724;51.176;-0.708;2023-05-01T06:24:07;101226.17;;;13.33;66.46
55517;BME280;41724;51.176;-0.708;2023-05-01T06:26:34;101228.24;;;13.58;67.94
55517;BME280;41724;51.176;-0.708;2023-05-01T06:29:01;101229.12;;;13.80;66.36
55517;BME280;41724;51.176;-0.708;2023-05-01T06:31:28;101235.08;;;14.04;66.78
55517;BME280;41724;51.176;-0.708;2023-05-01T06:33:55;101233.03;;;14.41;65.08
55517;BME280;41724;51.176;-0.708;2023-05-01T06:36:22;101234.76;;;14.26;64.23
55517;BME280;41724;51.176;-0.708;2023-05-01T06:38:49;101233.64;;;14.50;64.37
55517;BME280;41724;51.176;-0.708;2023-05-01T06:41:17;101236.66;;;13.88;64.61
55517;BME280;41724;51.176;-0.708;2023-05-01T06:43:43;101232.93;;;14.61;63.64
55517;BME280;41724;51.176;-0.708;2023-05-01T06:46:10;101235.47;;;14.90;63.28
55517;BME280;41724;51.176;-0.708;2023-05-01T06:48:37;101233.30;;;14.19;65.42
55517;BME280;41724;51.176;-0.708;2023-05-01T06:51:04;101228.75;;;14.94;64.41
55517;BME280;41724;51.176;-0.708;2023-05-01T06:53:31;101229.23;;;15.23;63.50
55517;BME280;41724;51.176;-0.708;2023-05-01T06:55:58;101231.19;;;15.56;63.14
55517;BME280;41724;51.176;-0.708;2023-05-01T06:58:27;101227.42;;;15.58;63.69
55517;BME280;41724;51.176;-0.708;2023-05-01T07:00:54;101226.67;;;15.79;61.15
55517;BME280;41724;51.176;-0.708;2023-05-01T07:03:21;101225.93;;;16.14;60.24
55517;BME280;41724;51.176;-0.708;2023-05-01T07:05:48;101229.56;;;16.00;60.70
55517;BME280;41724;51.176;-0.708;2023-05-01T07:08:15;101232.93;;;16.14;60.71
55517;BME280;41724;51.176;-0.708;2023-05-01T07:10:41;101236.14;;;15.85;61.23
55517;BME280;41724;51.176;-0.708;2023-05-01T07:13:09;101237.73;;;15.40;62.22
55517;BME280;41724;51.176;-0.708;2023-05-01T07:15:36;101239.50;;;15.24;64.89
55517;BME280;41724;51.176;-0.708;2023-05-01T07:18:03;101241.75;;;14.92;65.42
55517;BME280;41724;51.176;-0.708;2023-05-01T07:20:30;101243.58;;;15.64;63.04
55517;BME280;41724;51.176;-0.708;2023-05-01T07:22:57;101244.51;;;15.60;62.73
55517;BME280;41724;51.176;-0.708;2023-05-01T07:25:26;101242.89;;;15.59;61.95
55517;BME280;41724;51.176;-0.708;2023-05-01T07:27:53;101249.34;;;16.01;61.16
55517;BME280;41724;51.176;-0.708;2023-05-01T07:30:20;101253.26;;;16.15;59.59
55517;BME280;41724;51.176;-0.708;2023-05-01T07:32:47;101252.86;;;16.36;59.21
55517;BME280;41724;51.176;-0.708;2023-05-01T07:35:14;101257.56;;;15.73;59.82
55517;BME280;41724;51.176;-0.708;2023-05-01T07:37:41;101261.31;;;15.62;59.71
55517;BME280;41724;51.176;-0.708;2023-05-01T07:40:09;101263.15;;;16.35;59.60
55517;BME280;41724;51.176;-0.708;2023-05-01T07:42:36;101261.95;;;16.35;57.74
55517;BME280;41724;51.176;-0.708;2023-05-01T07:45:04;101263.32;;;16.48;59.07
55517;BME280;41724;51.176;-0.708;2023-05-01T07:47:31;101264.25;;;15.80;59.22
55517;BME280;41724;51.176;-0.708;2023-05-01T07:49:58;101262.05;;;16.10;59.07
55517;BME280;41724;51.176;-0.708;2023-05-01T07:52:25;101262.56;;;15.89;58.57
55517;BME280;41724;51.176;-0.708;2023-05-01T07:54:52;101263.65;;;16.01;58.60
55517;BME280;41724;51.176;-0.708;2023-05-01T07:57:19;101267.41;;;15.43;59.38
55517;BME280;41724;51.176;-0.708;2023-05-01T07:59:46;101268.18;;;15.41;59.90
55517;BME280;41724;51.176;-0.708;2023-05-01T08:02:12;101267.57;;;15.37;60.43
55517;BME280;41724;51.176;-0.708;2023-05-01T08:04:39;101271.92;;;15.24;60.41
55517;BME280;41724;51.176;-0.708;2023-05-01T08:07:06;101272.82;;;14.94;60.40
55517;BME280;41724;51.176;-0.708;2023-05-01T08:09:33;101272.96;;;15.07;59.53
55517;BME280;41724;51.176;-0.708;2023-05-01T08:12:00;101274.74;;;15.13;59.81
55517;BME280;41724;51.176;-0.708;2023-05-01T08:14:27;101274.56;;;15.19;61.71
55517;BME280;41724;51.176;-0.708;2023-05-01T08:16:55;101270.85;;;16.22;58.77
55517;BME280;41724;51.176;-0.708;2023-05-01T08:19:27;101272.71;;;15.43;59.32
55517;BME280;41724;51.176;-0.708;2023-05-01T08:21:54;101270.08;;;16.05;59.54
55517;BME280;41724;51.176;-0.708;2023-05-01T08:24:21;101269.16;;;16.39;58.48
55517;BME280;41724;51.176;-0.708;2023-05-01T08:26:48;101266.89;;;16.24;56.85
55517;BME280;41724;51.176;-0.708;2023-05-01T08:29:16;101262.66;;;17.30;54.97
55517;BME280;41724;51.176;-0.708;2023-05-01T08:31:43;101261.19;;;16.92;56.09
55517;BME280;41724;51.176;-0.708;2023-05-01T08:34:11;101259.96;;;17.36;55.96
55517;BME280;41724;51.176;-0.708;2023-05-01T08:36:38;101265.17;;;16.10;57.64
55517;BME280;41724;51.176;-0.708;2023-05-01T08:39:04;101261.92;;;16.44;57.20
55517;BME280;41724;51.176;-0.708;2023-05-01T08:41:31;101263.76;;;16.55;57.56
55517;BME280;41724;51.176;-0.708;2023-05-01T08:43:59;101258.99;;;16.16;57.90
55517;BME280;41724;51.176;-0.708;2023-05-01T08:46:35;101258.28;;;16.38;57.11
55517;BME280;41724;51.176;-0.708;2023-05-01T08:49:06;101261.20;;;17.35;56.45
55517;BME280;41724;51.176;-0.708;2023-05-01T08:51:35;101265.37;;;16.86;56.19
55517;BME280;41724;51.176;-0.708;2023-05-01T08:54:04;101264.93;;;16.82;56.77
55517;BME280;41724;51.176;-0.708;2023-05-01T08:56:35;101263.43;;;17.41;55.78
55517;BME280;41724;51.176;-0.708;2023-05-01T08:59:03;101265.40;;;17.78;55.30
55517;BME280;41724;51.176;-0.708;2023-05-01T09:01:33;101270.81;;;16.87;54.77
55517;BME280;41724;51.176;-0.708;2023-05-01T09:04:32;101279.92;;;16.08;56.95
55517;BME280;41724;51.176;-0.708;2023-05-01T09:07:00;101278.70;;;16.51;56.51
55517;BME280;41724;51.176;-0.708;2023-05-01T09:09:27;101283.25;;;16.55;56.42
55517;BME280;41724;51.176;-0.708;2023-05-01T09:11:55;101283.98;;;16.66;57.03
55517;BME280;41724;51.176;-0.708;2023-05-01T09:14:30;101284.59;;;16.62;56.64
55517;BME280;41724;51.176;-0.708;2023-05-01T09:16:57;101289.28;;;16.54;57.79
55517;BME280;41724;51.176;-0.708;2023-05-01T09:19:24;101294.21;;;16.52;56.62
55517;BME280;41724;51.176;-0.708;2023-05-01T09:21:52;101299.89;;;15.85;57.95
55517;BME280;41724;51.176;-0.708;2023-05-01T09:24:21;101306.01;;;15.00;59.92
55517;BME280;41724;51.176;-0.708;2023-05-01T09:26:49;101304.52;;;15.05;61.25
55517;BME280;41724;51.176;-0.708;2023-05-01T09:29:36;101301.36;;;16.32;59.04
55517;BME280;41724;51.176;-0.708;2023-05-01T09:32:15;101298.25;;;17.30;55.18
55517;BME280;41724;51.176;-0.708;2023-05-01T09:34:42;101304.78;;;16.16;56.64
55517;BME280;41724;51.176;-0.708;2023-05-01T09:37:11;101307.64;;;15.57;58.82
55517;BME280;41724;51.176;-0.708;2023-05-01T09:39:39;101307.71;;;17.15;57.10
55517;BME280;41724;51.176;-0.708;2023-05-01T09:42:06;101304.34;;;17.35;54.40
55517;BME280;41724;51.176;-0.708;2023-05-01T09:44:40;101306.33;;;16.13;57.70
55517;BME280;41724;51.176;-0.708;2023-05-01T09:47:07;101303.53;;;16.72;57.41
55517;BME280;41724;51.176;-0.708;2023-05-01T09:49:44;101306.10;;;16.37;56.56
55517;BME280;41724;51.176;-0.708;2023-05-01T09:52:11;101304.29;;;17.44;54.13
55517;BME280;41724;51.176;-0.708;2023-05-01T09:54:38;101301.18;;;17.17;54.94
55517;BME280;41724;51.176;-0.708;2023-05-01T09:57:05;101302.50;;;17.45;55.38
55517;BME280;41724;51.176;-0.708;2023-05-01T09:59:32;101301.58;;;17.75;53.43
55517;BME280;41724;51.176;-0.708;2023-05-01T10:01:59;101304.32;;;17.26;55.10
55517;BME280;41724;51.176;-0.708;2023-05-01T10:04:30;101308.19;;;17.24;56.47
55517;BME280;41724;51.176;-0.708;2023-05-01T10:07:03;101310.30;;;16.87;59.63
55517;BME280;41724;51.176;-0.708;2023-05-01T10:09:36;101310.48;;;17.39;61.99
55517;BME280;41724;51.176;-0.708;2023-05-01T10:12:03;101312.78;;;17.47;61.02
55517;BME280;41724;51.176;-0.708;2023-05-01T10:14:30;101309.31;;;17.29;61.56
55517;BME280;41724;51.176;-0.708;2023-05-01T10:16:57;101308.48;;;17.03;61.01
55517;BME280;41724;51.176;-0.708;2023-05-01T10:19:24;101307.02;;;17.95;62.12
55517;BME280;41724;51.176;-0.708;2023-05-01T10:21:52;101306.70;;;18.39;59.66
55517;BME280;41724;51.176;-0.708;2023-05-01T10:24:19;101305.48;;;18.29;62.81
55517;BME280;41724;51.176;-0.708;2023-05-01T10:26:47;101305.23;;;18.10;61.25
55517;BME280;41724;51.176;-0.708;2023-05-01T10:29:14;101303.57;;;18.97;61.40
55517;BME280;41724;51.176;-0.708;2023-05-01T10:31:41;101304.67;;;18.48;61.62
55517;BME280;41724;51.176;-0.708;2023-05-01T10:34:09;101302.58;;;18.38;59.60
55517;BME280;41724;51.176;-0.708;2023-05-01T10:36:49;101302.45;;;18.21;60.10
55517;BME280;41724;51.176;-0.708;2023-05-01T10:39:36;101305.08;;;18.65;62.72
55517;BME280;41724;51.176;-0.708;2023-05-01T10:42:04;101299.28;;;18.00;62.74
55517;BME280;41724;51.176;-0.708;2023-05-01T10:44:32;101300.10;;;18.41;63.18
55517;BME280;41724;51.176;-0.708;2023-05-01T10:46:59;101301.05;;;18.62;59.87
55517;BME280;41724;51.176;-0.708;2023-05-01T10:50:10;101302.72;;;19.55;61.84
55517;BME280;41724;51.176;-0.708;2023-05-01T10:53:43;101299.51;;;19.12;59.22
55517;BME280;41724;51.176;-0.708;2023-05-01T10:56:41;101296.88;;;19.62;58.79
55517;BME280;41724;51.176;-0.708;2023-05-01T10:59:09;101294.51;;;20.51;53.12
55517;BME280;41724;51.176;-0.708;2023-05-01T11:01:37;101292.78;;;20.54;53.94
55517;BME280;41724;51.176;-0.708;2023-05-01T11:04:05;101292.22;;;20.42;53.69
55517;BME280;41724;51.176;-0.708;2023-05-01T11:06:33;101290.67;;;20.64;53.47
55517;BME280;41724;51.176;-0.708;2023-05-01T11:09:01;101285.11;;;21.14;50.83
55517;BME280;41724;51.176;-0.708;2023-05-01T11:12:01;101291.01;;;21.09;50.12
55517;BME280;41724;51.176;-0.708;2023-05-01T11:15:00;101291.76;;;21.34;47.51
55517;BME280;41724;51.176;-0.708;2023-05-01T11:17:44;101292.36;;;20.73;45.60
55517;BME280;41724;51.176;-0.708;2023-05-01T11:20:12;101290.74;;;20.92;46.57
55517;BME280;41724;51.176;-0.708;2023-05-01T11:23:17;101292.10;;;20.80;48.82
55517;BME280;41724;51.176;-0.708;2023-05-01T11:25:46;101290.69;;;21.70;47.75
55517;BME280;41724;51.176;-0.708;2023-05-01T11:28:18;101293.97;;;21.08;45.48
55517;BME280;41724;51.176;-0.708;2023-05-01T11:30:46;101291.53;;;22.07;45.70
55517;BME280;41724;51.176;-0.708;2023-05-01T11:33:21;101292.72;;;21.27;48.51
55517;BME280;41724;51.176;-0.708;2023-05-01T11:35:57;101287.07;;;21.37;46.55
55517;BME280;41724;51.176;-0.708;2023-05-01T11:38:24;101284.77;;;21.56;46.55
55517;BME280;41724;51.176;-0.708;2023-05-01T11:40:54;101287.89;;;21.15;44.74
55517;BME280;41724;51.176;-0.708;2023-05-01T11:43:21;101286.77;;;21.87;45.78
55517;BME280;41724;51.176;-0.708;2023-05-01T11:45:51;101282.66;;;21.81;46.60
55517;BME280;41724;51.176;-0.708;2023-05-01T11:48:20;101289.09;;;21.27;41.55
55517;BME280;41724;51.176;-0.708;2023-05-01T11:50:47;101290.92;;;21.72;44.07
55517;BME280;41724;51.176;-0.708;2023-05-01T11:53:14;101288.83;;;21.24;44.36
55517;BME280;41724;51.176;-0.708;2023-05-01T11:55:41;101289.65;;;20.79;41.83
55517;BME280;41724;51.176;-0.708;2023-05-01T11:58:08;101292.45;;;21.70;44.34
55517;BME280;41724;51.176;-0.708;2023-05-01T12:00:36;101298.65;;;20.44;43.88
55517;BME280;41724;51.176;-0.708;2023-05-01T12:03:06;101319.92;;;19.58;50.09
55517;BME280;41724;51.176;-0.708;2023-05-01T12:05:35;101316.54;;;19.46;57.06
55517;BME280;41724;51.176;-0.708;2023-05-01T12:08:07;101316.59;;;18.79;55.72
55517;BME280;41724;51.176;-0.708;2023-05-01T12:10:35;101316.48;;;18.86;57.39
55517;BME280;41724;51.176;-0.708;2023-05-01T12:13:03;101312.28;;;18.56;57.41
55517;BME280;41724;51.176;-0.708;2023-05-01T12:15:31;101315.00;;;18.64;58.40
55517;BME280;41724;51.176;-0.708;2023-05-01T12:18:00;101319.04;;;19.88;59.99
55517;BME280;41724;51.176;-0.708;2023-05-01T12:20:45;101316.35;;;20.09;57.38
55517;BME280;41724;51.176;-0.708;2023-05-01T12:23:14;101316.17;;;19.77;57.45
55517;BME280;41724;51.176;-0.708;2023-05-01T12:25:42;101315.37;;;19.64;57.86
55517;BME280;41724;51.176;-0.708;2023-05-01T12:28:11;101318.29;;;19.50;63.88
55517;BME280;41724;51.176;-0.708;2023-05-01T12:30:40;101313.89;;;19.36;62.69
55517;BME280;41724;51.176;-0.708;2023-05-01T12:33:09;101314.11;;;18.93;62.13
55517;BME280;41724;51.176;-0.708;2023-05-01T12:35:37;101306.84;;;19.84;58.16
55517;BME280;41724;51.176;-0.708;2023-05-01T12:38:10;101313.89;;;19.87;67.82
55517;BME280;41724;51.176;-0.708;2023-05-01T12:40:38;101312.05;;;18.84;52.62
55517;BME280;41724;51.176;-0.708;2023-05-01T12:43:05;101301.01;;;20.16;58.57
55517;BME280;41724;51.176;-0.708;2023-05-01T12:45:38;101292.91;;;20.92;56.23
55517;BME280;41724;51.176;-0.708;2023-05-01T12:48:11;101290.73;;;21.79;55.44
55517;BME280;41724;51.176;-0.708;2023-05-01T12:50:38;101289.78;;;22.23;50.83
55517;BME280;41724;51.176;-0.708;2023-05-01T12:53:06;101302.07;;;20.97;51.48
55517;BME280;41724;51.176;-0.708;2023-05-01T12:55:43;101311.59;;;21.38;51.18